sensor_id;sensor_type;location;lat;lon;timestamp;pressure;altitude;pressure_sealevel;temperature;humidity
14295;BME280;7231;59.370;18.016;2023-07-13T00:01:21;100245.69;;;15.93;100.00
14295;BME280;7231;59.370;18.016;2023-07-13T00:03:50;100254.50;;;15.91;100.00
14295;BME280;7231;59.370;18.016;2023-07-13T00:06:19;100257.16;;;15.88;100.00
14295;BME280;7231;59.370;18.016;2023-07-13T00:08:48;100252.75;;;15.86;100.00
14295;BME280;7231;59.370;18.016;2023-07-13T00:11:17;100254.53;;;15.84;100.00
14295;BME280;7231;59.370;18.016;2023-07-13T00:13:45;100253.66;;;15.82;100.00
14295;BME280;7231;59.370;18.016;2023-07-13T00:16:15;100253.66;;;15.82;100.00
14295;BME280;7231;59.370;18.016;2023-07-13T00:18:43;100251.00;;;15.80;100.00
14295;BME280;7231;59.370;18.016;2023-07-13T00:21:11;100251.88;;;15.79;100.00
14295;BME280;7231;59.370;18.016;2023-07-13T00:23:41;100258.06;;;15.77;100.00
14295;BME280;7231;59.370;18.016;2023-07-13T00:26:11;100261.59;;;15.74;100.00
14295;BME280;7231;59.370;18.016;2023-07-13T00:28:40;100253.66;;;15.71;100.00
14295;BME280;7231;59.370;18.016;2023-07-13T00:31:09;100234.34;;;15.58;100.00
14295;BME280;7231;59.370;18.016;2023-07-13T00:33:39;100231.72;;;15.57;100.00
14295;BME280;7231;59.370;18.016;2023-07-13T00:36:09;100248.38;;;15.68;100.00
14295;BME280;7231;59.370;18.016;2023-07-13T00:38:38;100242.22;;;15.66;100.00
14295;BME280;7231;59.370;18.016;2023-07-13T00:41:06;100244.88;;;15.65;100.00
14295;BME280;7231;59.370;18.016;2023-07-13T00:43:35;100237.81;;;15.62;100.00
14295;BME280;7231;59.370;18.016;2023-07-13T00:46:21;100212.31;;;15.43;100.00
14295;BME280;7231;59.370;18.016;2023-07-13T00:48:52;100240.47;;;15.56;100.00
14295;BME280;7231;59.370;18.016;2023-07-13T00:51:25;100192.97;;;15.29;100.00
14295;BME280;7231;59.370;18.016;2023-07-13T00:53:57;100227.28;;;15.48;100.00
14295;BME280;7231;59.370;18.016;2023-07-13T00:56:27;100246.69;;;15.60;100.00
14295;BME280;7231;59.370;18.016;2023-07-13T00:58:57;100244.88;;;15.55;100.00
14295;BME280;7231;59.370;18.016;2023-07-13T01:01:25;100257.22;;;15.55;100.00
14295;BME280;7231;59.370;18.016;2023-07-13T01:03:55;100256.34;;;15.53;100.00
14295;BME280;7231;59.370;18.016;2023-07-13T01:06:24;100251.06;;;15.51;100.00
14295;BME280;7231;59.370;18.016;2023-07-13T01:08:52;100258.09;;;15.52;100.00
14295;BME280;7231;59.370;18.016;2023-07-13T01:11:21;100256.34;;;15.51;100.00
14295;BME280;7231;59.370;18.016;2023-07-13T01:13:50;100253.69;;;15.51;100.00
14295;BME280;7231;59.370;18.016;2023-07-13T01:16:23;100245.78;;;15.41;100.00
14295;BME280;7231;59.370;18.016;2023-07-13T01:18:52;100260.75;;;15.49;100.00
14295;BME280;7231;59.370;18.016;2023-07-13T01:21:22;100264.28;;;15.51;100.00
14295;BME280;7231;59.370;18.016;2023-07-13T01:23:50;100263.41;;;15.57;100.00
14295;BME280;7231;59.370;18.016;2023-07-13T01:26:18;100261.66;;;15.59;100.00
14295;BME280;7231;59.370;18.016;2023-07-13T01:28:46;100258.13;;;15.60;100.00
14295;BME280;7231;59.370;18.016;2023-07-13T01:31:15;100267.78;;;15.64;100.00
14295;BME280;7231;59.370;18.016;2023-07-13T01:33:43;100273.94;;;15.66;100.00
14295;BME280;7231;59.370;18.016;2023-07-13T01:36:12;100275.69;;;15.70;100.00
14295;BME280;7231;59.370;18.016;2023-07-13T01:38:41;100272.16;;;15.71;100.00
14295;BME280;7231;59.370;18.016;2023-07-13T01:41:10;100273.94;;;15.69;100.00
14295;BME280;7231;59.370;18.016;2023-07-13T01:43:39;100276.56;;;15.72;100.00
14295;BME280;7231;59.370;18.016;2023-07-13T01:46:07;100273.94;;;15.69;100.00
14295;BME280;7231;59.370;18.016;2023-07-13T01:48:42;100276.59;;;15.68;100.00
14295;BME280;7231;59.370;18.016;2023-07-13T01:51:11;100266.94;;;15.59;100.00
14295;BME280;7231;59.370;18.016;2023-07-13T01:53:41;100267.78;;;15.63;100.00
14295;BME280;7231;59.370;18.016;2023-07-13T01:56:09;100286.31;;;15.58;100.00
14295;BME280;7231;59.370;18.016;2023-07-13T01:58:38;100274.88;;;15.59;100.00
14295;BME280;7231;59.370;18.016;2023-07-13T02:01:06;100190.34;;;15.01;100.00
14295;BME280;7231;59.370;18.016;2023-07-13T02:03:35;100285.41;;;15.51;100.00
14295;BME280;7231;59.370;18.016;2023-07-13T02:06:03;100285.41;;;15.50;100.00
14295;BME280;7231;59.370;18.016;2023-07-13T02:08:32;100284.53;;;15.43;100.00
14295;BME280;7231;59.370;18.016;2023-07-13T02:11:02;100281.91;;;15.39;100.00
14295;BME280;7231;59.370;18.016;2023-07-13T02:13:31;100273.09;;;15.34;100.00
14295;BME280;7231;59.370;18.016;2023-07-13T02:15:59;100282.78;;;15.32;100.00
14295;BME280;7231;59.370;18.016;2023-07-13T02:18:27;100277.50;;;15.29;100.00
14295;BME280;7231;59.370;18.016;2023-07-13T02:20:55;100266.94;;;15.22;100.00
14295;BME280;7231;59.370;18.016;2023-07-13T02:23:24;100267.81;;;15.17;100.00
14295;BME280;7231;59.370;18.016;2023-07-13T02:25:54;100273.09;;;15.15;100.00
14295;BME280;7231;59.370;18.016;2023-07-13T02:28:24;100273.97;;;15.14;100.00
14295;BME280;7231;59.370;18.016;2023-07-13T02:30:53;100277.50;;;15.13;100.00
14295;BME280;7231;59.370;18.016;2023-07-13T02:33:21;100275.72;;;15.09;100.00
14295;BME280;7231;59.370;18.016;2023-07-13T02:35:49;100273.97;;;15.07;100.00
14295;BME280;7231;59.370;18.016;2023-07-13T02:38:18;100277.47;;;15.04;100.00
14295;BME280;7231;59.370;18.016;2023-07-13T02:40:47;100280.13;;;15.01;100.00
14295;BME280;7231;59.370;18.016;2023-07-13T02:43:15;100285.41;;;15.01;100.00
14295;BME280;7231;59.370;18.016;2023-07-13T02:45:45;100279.25;;;14.96;100.00
14295;BME280;7231;59.370;18.016;2023-07-13T02:48:14;100269.53;;;14.83;100.00
14295;BME280;7231;59.370;18.016;2023-07-13T02:50:43;100281.88;;;14.99;100.00
14295;BME280;7231;59.370;18.016;2023-07-13T02:53:11;100293.31;;;14.98;100.00
14295;BME280;7231;59.370;18.016;2023-07-13T02:55:40;100293.31;;;14.98;100.00
14295;BME280;7231;59.370;18.016;2023-07-13T02:58:14;100292.44;;;14.98;100.00
14295;BME280;7231;59.370;18.016;2023-07-13T03:00:46;100288.91;;;14.97;100.00
14295;BME280;7231;59.370;18.016;2023-07-13T03:03:15;100299.47;;;14.99;100.00
14295;BME280;7231;59.370;18.016;2023-07-13T03:05:45;100299.47;;;15.00;100.00
14295;BME280;7231;59.370;18.016;2023-07-13T03:08:17;100304.75;;;14.97;100.00
14295;BME280;7231;59.370;18.016;2023-07-13T03:10:45;100310.94;;;15.01;100.00
14295;BME280;7231;59.370;18.016;2023-07-13T03:13:14;100293.31;;;14.95;100.00
14295;BME280;7231;59.370;18.016;2023-07-13T03:15:42;100304.75;;;15.03;100.00
14295;BME280;7231;59.370;18.016;2023-07-13T03:18:11;100295.09;;;14.99;100.00
14295;BME280;7231;59.370;18.016;2023-07-13T03:20:40;100309.16;;;15.07;100.00
14295;BME280;7231;59.370;18.016;2023-07-13T03:23:08;100300.38;;;15.11;100.00
14295;BME280;7231;59.370;18.016;2023-07-13T03:25:36;100312.69;;;15.17;100.00
14295;BME280;7231;59.370;18.016;2023-07-13T03:28:04;100307.44;;;15.18;100.00
14295;BME280;7231;59.370;18.016;2023-07-13T03:30:32;100309.19;;;15.29;100.00
14295;BME280;7231;59.370;18.016;2023-07-13T03:33:01;100308.31;;;15.31;100.00
14295;BME280;7231;59.370;18.016;2023-07-13T03:35:34;100305.66;;;15.26;100.00
14295;BME280;7231;59.370;18.016;2023-07-13T03:38:03;100314.47;;;15.33;100.00
14295;BME280;7231;59.370;18.016;2023-07-13T03:40:31;100326.81;;;15.33;100.00
14295;BME280;7231;59.370;18.016;2023-07-13T03:43:00;100320.63;;;15.32;100.00
14295;BME280;7231;59.370;18.016;2023-07-13T03:45:29;100320.66;;;15.35;100.00
14295;BME280;7231;59.370;18.016;2023-07-13T03:47:57;100325.03;;;15.35;100.00
14295;BME280;7231;59.370;18.016;2023-07-13T03:50:26;100318.00;;;15.32;100.00
14295;BME280;7231;59.370;18.016;2023-07-13T03:52:55;100279.25;;;15.10;100.00
14295;BME280;7231;59.370;18.016;2023-07-13T03:55:24;100324.16;;;15.36;100.00
14295;BME280;7231;59.370;18.016;2023-07-13T03:57:59;100316.25;;;15.36;100.00
14295;BME280;7231;59.370;18.016;2023-07-13T04:00:27;100323.28;;;15.37;100.00
14295;BME280;7231;59.370;18.016;2023-07-13T04:02:55;100326.81;;;15.39;100.00
14295;BME280;7231;59.370;18.016;2023-07-13T04:05:23;100330.34;;;15.39;100.00
14295;BME280;7231;59.370;18.016;2023-07-13T04:07:52;100334.72;;;15.43;100.00
14295;BME280;7231;59.370;18.016;2023-07-13T04:10:21;100334.72;;;15.48;100.00
14295;BME280;7231;59.370;18.016;2023-07-13T04:12:49;100332.09;;;15.48;100.00
14295;BME280;7231;59.370;18.016;2023-07-13T04:15:18;100334.72;;;15.43;100.00
14295;BME280;7231;59.370;18.016;2023-07-13T04:17:46;100339.13;;;15.44;100.00
14295;BME280;7231;59.370;18.016;2023-07-13T04:20:14;100333.84;;;15.46;100.00
14295;BME280;7231;59.370;18.016;2023-07-13T04:22:42;100343.53;;;15.56;100.00
14295;BME280;7231;59.370;18.016;2023-07-13T04:25:11;100345.31;;;15.62;100.00
14295;BME280;7231;59.370;18.016;2023-07-13T04:27:40;100339.13;;;15.70;100.00
14295;BME280;7231;59.370;18.016;2023-07-13T04:30:09;100346.19;;;15.74;100.00
14295;BME280;7231;59.370;18.016;2023-07-13T04:32:38;100317.09;;;15.65;100.00
14295;BME280;7231;59.370;18.016;2023-07-13T04:35:06;100345.28;;;15.86;100.00
14295;BME280;7231;59.370;18.016;2023-07-13T04:37:35;100351.44;;;15.91;100.00
14295;BME280;7231;59.370;18.016;2023-07-13T04:40:04;100351.44;;;15.96;100.00
14295;BME280;7231;59.370;18.016;2023-07-13T04:42:32;100302.13;;;15.73;100.00
14295;BME280;7231;59.370;18.016;2023-07-13T04:45:03;100349.66;;;16.07;100.00
14295;BME280;7231;59.370;18.016;2023-07-13T04:47:31;100354.03;;;16.14;100.00
14295;BME280;7231;59.370;18.016;2023-07-13T04:50:00;100333.78;;;16.01;100.00
14295;BME280;7231;59.370;18.016;2023-07-13T04:52:28;100354.94;;;16.13;100.00
14295;BME280;7231;59.370;18.016;2023-07-13T04:54:56;100351.41;;;16.14;100.00
14295;BME280;7231;59.370;18.016;2023-07-13T04:57:24;100346.09;;;16.18;100.00
14295;BME280;7231;59.370;18.016;2023-07-13T04:59:52;100353.13;;;16.24;100.00
14295;BME280;7231;59.370;18.016;2023-07-13T05:02:22;100358.41;;;16.29;100.00
14295;BME280;7231;59.370;18.016;2023-07-13T05:04:50;100357.50;;;16.39;100.00
14295;BME280;7231;59.370;18.016;2023-07-13T05:07:19;100363.66;;;16.47;100.00
14295;BME280;7231;59.370;18.016;2023-07-13T05:09:47;100362.75;;;16.46;100.00
14295;BME280;7231;59.370;18.016;2023-07-13T05:12:15;100357.50;;;16.40;100.00
14295;BME280;7231;59.370;18.016;2023-07-13T05:14:43;100352.22;;;16.34;100.00
14295;BME280;7231;59.370;18.016;2023-07-13T05:17:12;100350.47;;;16.32;99.45
14295;BME280;7231;59.370;18.016;2023-07-13T05:19:41;100357.50;;;16.34;98.75
14295;BME280;7231;59.370;18.016;2023-07-13T05:22:09;100362.81;;;16.36;98.30
14295;BME280;7231;59.370;18.016;2023-07-13T05:24:38;100377.78;;;16.40;97.97
14295;BME280;7231;59.370;18.016;2023-07-13T05:27:06;100361.88;;;16.44;96.82
14295;BME280;7231;59.370;18.016;2023-07-13T05:29:34;100356.59;;;16.47;95.79
14295;BME280;7231;59.370;18.016;2023-07-13T05:32:03;100376.00;;;16.45;95.72
14295;BME280;7231;59.370;18.016;2023-07-13T05:34:32;100367.16;;;16.53;95.93
14295;BME280;7231;59.370;18.016;2023-07-13T05:37:01;100375.06;;;16.61;95.25
14295;BME280;7231;59.370;18.016;2023-07-13T05:39:30;100371.53;;;16.59;94.60
14295;BME280;7231;59.370;18.016;2023-07-13T05:41:58;100368.91;;;16.54;94.50
14295;BME280;7231;59.370;18.016;2023-07-13T05:44:26;100368.91;;;16.58;94.30
14295;BME280;7231;59.370;18.016;2023-07-13T05:46:54;100373.28;;;16.62;94.15
14295;BME280;7231;59.370;18.016;2023-07-13T05:49:23;100371.53;;;16.71;93.49
14295;BME280;7231;59.370;18.016;2023-07-13T05:51:51;100375.94;;;16.72;92.67
14295;BME280;7231;59.370;18.016;2023-07-13T05:54:21;100380.34;;;16.70;92.35
14295;BME280;7231;59.370;18.016;2023-07-13T05:56:49;100372.41;;;16.64;92.31
14295;BME280;7231;59.370;18.016;2023-07-13T05:59:17;100355.69;;;16.48;90.96
14295;BME280;7231;59.370;18.016;2023-07-13T06:01:46;100368.91;;;16.54;91.35
14295;BME280;7231;59.370;18.016;2023-07-13T06:04:14;100373.31;;;16.57;90.49
14295;BME280;7231;59.370;18.016;2023-07-13T06:06:42;100364.50;;;16.53;89.88
14295;BME280;7231;59.370;18.016;2023-07-13T06:09:10;100339.88;;;16.30;89.17
14295;BME280;7231;59.370;18.016;2023-07-13T06:11:40;100358.34;;;16.51;89.64
14295;BME280;7231;59.370;18.016;2023-07-13T06:14:08;100375.94;;;16.59;89.26
14295;BME280;7231;59.370;18.016;2023-07-13T06:16:36;100335.44;;;16.41;88.01
14295;BME280;7231;59.370;18.016;2023-07-13T06:19:05;100366.25;;;16.54;88.07
14295;BME280;7231;59.370;18.016;2023-07-13T06:21:33;100380.34;;;16.64;86.73
14295;BME280;7231;59.370;18.016;2023-07-13T06:24:01;100385.66;;;16.66;86.23
14295;BME280;7231;59.370;18.016;2023-07-13T06:26:29;100378.59;;;16.68;85.62
14295;BME280;7231;59.370;18.016;2023-07-13T06:29:00;100381.22;;;16.71;85.08
14295;BME280;7231;59.370;18.016;2023-07-13T06:31:28;100389.19;;;16.68;84.80
14295;BME280;7231;59.370;18.016;2023-07-13T06:33:56;100386.56;;;16.65;84.84
14295;BME280;7231;59.370;18.016;2023-07-13T06:36:25;100389.19;;;16.69;84.90
14295;BME280;7231;59.370;18.016;2023-07-13T06:38:53;100382.97;;;16.76;84.92
14295;BME280;7231;59.370;18.016;2023-07-13T06:41:21;100388.22;;;16.84;84.84
14295;BME280;7231;59.370;18.016;2023-07-13T06:43:53;100377.63;;;16.87;83.98
14295;BME280;7231;59.370;18.016;2023-07-13T06:46:23;100378.47;;;16.97;83.73
14295;BME280;7231;59.370;18.016;2023-07-13T06:48:51;100389.94;;;16.99;83.60
14295;BME280;7231;59.370;18.016;2023-07-13T06:51:19;100388.13;;;17.05;83.19
14295;BME280;7231;59.370;18.016;2023-07-13T06:53:48;100384.56;;;17.11;82.99
14295;BME280;7231;59.370;18.016;2023-07-13T06:56:16;100389.75;;;17.28;83.23
14295;BME280;7231;59.370;18.016;2023-07-13T06:58:45;100380.81;;;17.44;81.86
14295;BME280;7231;59.370;18.016;2023-07-13T07:01:13;100399.31;;;17.51;80.95
14295;BME280;7231;59.370;18.016;2023-07-13T07:03:43;100395.78;;;17.49;80.38
14295;BME280;7231;59.370;18.016;2023-07-13T07:06:15;100389.59;;;17.52;80.37
14295;BME280;7231;59.370;18.016;2023-07-13T07:08:44;100379.06;;;17.41;79.77
14295;BME280;7231;59.370;18.016;2023-07-13T07:11:14;100397.47;;;17.63;79.67
14295;BME280;7231;59.370;18.016;2023-07-13T07:13:42;100401.94;;;17.56;79.07
14295;BME280;7231;59.370;18.016;2023-07-13T07:16:11;100401.03;;;17.57;79.45
14295;BME280;7231;59.370;18.016;2023-07-13T07:18:39;100386.84;;;17.63;78.95
14295;BME280;7231;59.370;18.016;2023-07-13T07:21:09;100390.22;;;17.86;79.54
14295;BME280;7231;59.370;18.016;2023-07-13T07:23:38;100390.03;;;18.06;78.62
14295;BME280;7231;59.370;18.016;2023-07-13T07:26:07;100377.69;;;18.02;77.64
14295;BME280;7231;59.370;18.016;2023-07-13T07:28:37;100384.78;;;18.01;77.40
14295;BME280;7231;59.370;18.016;2023-07-13T07:31:08;100400.63;;;18.09;76.32
14295;BME280;7231;59.370;18.016;2023-07-13T07:33:39;100405.09;;;18.05;76.54
14295;BME280;7231;59.370;18.016;2023-07-13T07:36:09;100400.56;;;18.16;76.23
14295;BME280;7231;59.370;18.016;2023-07-13T07:38:41;100395.06;;;18.30;76.38
14295;BME280;7231;59.370;18.016;2023-07-13T07:41:10;100405.50;;;18.47;76.41
14295;BME280;7231;59.370;18.016;2023-07-13T07:43:41;100402.72;;;18.58;76.06
14295;BME280;7231;59.370;18.016;2023-07-13T07:46:09;100401.94;;;18.49;74.25
14295;BME280;7231;59.370;18.016;2023-07-13T07:48:37;100394.88;;;18.48;74.65
14295;BME280;7231;59.370;18.016;2023-07-13T07:51:06;100404.34;;;18.74;74.56
14295;BME280;7231;59.370;18.016;2023-07-13T07:53:35;100416.22;;;19.14;73.74
14295;BME280;7231;59.370;18.016;2023-07-13T07:56:04;100407.94;;;19.34;72.39
14295;BME280;7231;59.370;18.016;2023-07-13T07:58:52;100389.13;;;19.48;70.16
14295;BME280;7231;59.370;18.016;2023-07-13T08:01:23;100417.06;;;19.78;68.92
14295;BME280;7231;59.370;18.016;2023-07-13T08:03:54;100417.97;;;19.77;68.29
14295;BME280;7231;59.370;18.016;2023-07-13T08:06:25;100413.16;;;19.99;66.98
14295;BME280;7231;59.370;18.016;2023-07-13T08:09:12;100413.06;;;20.05;64.38
14295;BME280;7231;59.370;18.016;2023-07-13T08:11:41;100414.66;;;20.15;65.34
14295;BME280;7231;59.370;18.016;2023-07-13T08:14:12;100416.78;;;20.46;65.27
14295;BME280;7231;59.370;18.016;2023-07-13T08:16:40;100417.66;;;20.88;63.62
14295;BME280;7231;59.370;18.016;2023-07-13T08:19:09;100414.28;;;21.23;63.92
14295;BME280;7231;59.370;18.016;2023-07-13T08:21:38;100420.50;;;21.97;62.34
14295;BME280;7231;59.370;18.016;2023-07-13T08:24:06;100414.69;;;21.80;59.60
14295;BME280;7231;59.370;18.016;2023-07-13T08:26:36;100415.81;;;22.07;60.40
14295;BME280;7231;59.370;18.016;2023-07-13T08:29:04;100415.34;;;22.58;59.87
14295;BME280;7231;59.370;18.016;2023-07-13T08:31:32;100408.22;;;22.58;57.08
14295;BME280;7231;59.370;18.016;2023-07-13T08:34:01;100422.03;;;22.42;57.65
14295;BME280;7231;59.370;18.016;2023-07-13T08:36:29;100421.59;;;22.57;57.39
14295;BME280;7231;59.370;18.016;2023-07-13T08:38:57;100429.53;;;23.22;57.24
14295;BME280;7231;59.370;18.016;2023-07-13T08:41:26;100434.94;;;23.48;55.51
14295;BME280;7231;59.370;18.016;2023-07-13T08:43:58;100438.84;;;23.38;53.54
14295;BME280;7231;59.370;18.016;2023-07-13T08:46:33;100435.31;;;23.08;54.93
14295;BME280;7231;59.370;18.016;2023-07-13T08:49:07;100435.22;;;23.11;53.74
14295;BME280;7231;59.370;18.016;2023-07-13T08:51:41;100437.56;;;22.60;52.15
14295;BME280;7231;59.370;18.016;2023-07-13T08:54:18;100441.19;;;21.88;52.94
14295;BME280;7231;59.370;18.016;2023-07-13T08:56:50;100446.22;;;22.00;54.14
14295;BME280;7231;59.370;18.016;2023-07-13T08:59:24;100439.38;;;22.25;53.70
14295;BME280;7231;59.370;18.016;2023-07-13T09:02:04;100415.06;;;22.36;53.21
14295;BME280;7231;59.370;18.016;2023-07-13T09:04:37;100443.72;;;22.62;53.90
14295;BME280;7231;59.370;18.016;2023-07-13T09:07:15;100426.94;;;22.89;53.25
14295;BME280;7231;59.370;18.016;2023-07-13T09:09:55;100436.59;;;23.24;52.34
14295;BME280;7231;59.370;18.016;2023-07-13T09:12:33;100433.50;;;23.09;52.56
14295;BME280;7231;59.370;18.016;2023-07-13T09:15:04;100436.38;;;23.60;52.41
14295;BME280;7231;59.370;18.016;2023-07-13T09:17:36;100440.22;;;23.79;49.77
14295;BME280;7231;59.370;18.016;2023-07-13T09:20:19;100441.72;;;23.32;50.50
14295;BME280;7231;59.370;18.016;2023-07-13T09:22:50;100431.25;;;23.24;50.45
14295;BME280;7231;59.370;18.016;2023-07-13T09:25:24;100399.94;;;22.67;50.23
14295;BME280;7231;59.370;18.016;2023-07-13T09:27:58;100441.69;;;22.72;50.76
14295;BME280;7231;59.370;18.016;2023-07-13T09:30:34;100445.47;;;22.30;51.00
14295;BME280;7231;59.370;18.016;2023-07-13T09:33:05;100361.63;;;21.68;51.87
14295;BME280;7231;59.370;18.016;2023-07-13T09:35:34;100445.25;;;22.06;51.71
14295;BME280;7231;59.370;18.016;2023-07-13T09:38:11;100446.88;;;21.74;52.32
14295;BME280;7231;59.370;18.016;2023-07-13T09:40:59;100462.13;;;22.06;51.87
14295;BME280;7231;59.370;18.016;2023-07-13T09:43:28;100440.59;;;21.38;51.63
14295;BME280;7231;59.370;18.016;2023-07-13T09:45:58;100458.25;;;21.02;52.46
14295;BME280;7231;59.370;18.016;2023-07-13T09:48:34;100424.47;;;20.61;53.86
14295;BME280;7231;59.370;18.016;2023-07-13T09:51:09;100443.00;;;20.67;54.67
14295;BME280;7231;59.370;18.016;2023-07-13T09:53:42;100443.53;;;20.83;55.35
14295;BME280;7231;59.370;18.016;2023-07-13T09:56:22;100435.75;;;21.55;54.50
14295;BME280;7231;59.370;18.016;2023-07-13T09:58:50;100437.38;;;21.98;53.20
14295;BME280;7231;59.370;18.016;2023-07-13T10:01:33;100432.75;;;22.40;52.08
14295;BME280;7231;59.370;18.016;2023-07-13T10:04:10;100425.91;;;22.62;51.61
14295;BME280;7231;59.370;18.016;2023-07-13T10:06:40;100417.53;;;22.75;51.59
14295;BME280;7231;59.370;18.016;2023-07-13T10:09:13;100433.50;;;23.38;50.54
14295;BME280;7231;59.370;18.016;2023-07-13T10:11:43;100438.53;;;24.03;49.70
14295;BME280;7231;59.370;18.016;2023-07-13T10:14:13;100437.31;;;23.59;48.46
14295;BME280;7231;59.370;18.016;2023-07-13T10:16:46;100439.34;;;23.49;49.09
14295;BME280;7231;59.370;18.016;2023-07-13T10:19:19;100445.38;;;23.85;48.58
14295;BME280;7231;59.370;18.016;2023-07-13T10:21:53;100436.84;;;24.27;48.46
14295;BME280;7231;59.370;18.016;2023-07-13T10:24:23;100433.81;;;25.11;47.34
14295;BME280;7231;59.370;18.016;2023-07-13T10:26:56;100442.50;;;24.92;46.16
14295;BME280;7231;59.370;18.016;2023-07-13T10:29:27;100420.00;;;24.73;45.74
14295;BME280;7231;59.370;18.016;2023-07-13T10:31:58;100441.06;;;24.84;46.36
14295;BME280;7231;59.370;18.016;2023-07-13T10:34:27;100449.69;;;24.92;45.24
14295;BME280;7231;59.370;18.016;2023-07-13T10:36:55;100451.44;;;23.90;44.36
14295;BME280;7231;59.370;18.016;2023-07-13T10:39:26;100452.22;;;23.09;45.83
14295;BME280;7231;59.370;18.016;2023-07-13T10:41:58;100434.91;;;23.22;46.12
14295;BME280;7231;59.370;18.016;2023-07-13T10:44:30;100439.13;;;23.85;45.47
14295;BME280;7231;59.370;18.016;2023-07-13T10:47:03;100435.88;;;24.54;44.90
14295;BME280;7231;59.370;18.016;2023-07-13T10:49:34;100447.69;;;24.22;43.62
14295;BME280;7231;59.370;18.016;2023-07-13T10:52:04;100361.84;;;23.46;45.34
14295;BME280;7231;59.370;18.016;2023-07-13T10:54:33;100410.81;;;23.78;44.94
14295;BME280;7231;59.370;18.016;2023-07-13T10:57:15;100432.91;;;23.84;45.52
14295;BME280;7231;59.370;18.016;2023-07-13T10:59:47;100423.47;;;23.73;44.66
14295;BME280;7231;59.370;18.016;2023-07-13T11:02:25;100438.13;;;23.33;45.34
14295;BME280;7231;59.370;18.016;2023-07-13T11:04:55;100440.06;;;23.28;45.96
14295;BME280;7231;59.370;18.016;2023-07-13T11:07:27;100451.72;;;23.25;46.25
14295;BME280;7231;59.370;18.016;2023-07-13T11:09:58;100436.41;;;23.30;45.44
14295;BME280;7231;59.370;18.016;2023-07-13T11:12:52;100439.97;;;23.59;45.06
14295;BME280;7231;59.370;18.016;2023-07-13T11:15:31;100438.13;;;23.61;44.75
14295;BME280;7231;59.370;18.016;2023-07-13T11:18:04;100439.91;;;23.33;45.16
14295;BME280;7231;59.370;18.016;2023-07-13T11:20:35;100456.38;;;23.19;45.46
14295;BME280;7231;59.370;18.016;2023-07-13T11:23:29;100440.28;;;22.91;45.49
14295;BME280;7231;59.370;18.016;2023-07-13T11:25:59;100443.47;;;23.04;46.59
14295;BME280;7231;59.370;18.016;2023-07-13T11:28:31;100442.34;;;23.40;46.16
14295;BME280;7231;59.370;18.016;2023-07-13T11:33:56;100438.41;;;23.80;45.51
14295;BME280;7231;59.370;18.016;2023-07-13T11:36:31;100442.38;;;24.21;45.03
14295;BME280;7231;59.370;18.016;2023-07-13T11:39:02;100452.22;;;24.47;44.39
14295;BME280;7231;59.370;18.016;2023-07-13T11:41:35;100435.28;;;24.46;44.44
14295;BME280;7231;59.370;18.016;2023-07-13T11:44:12;100438.03;;;24.93;44.51
14295;BME280;7231;59.370;18.016;2023-07-13T11:46:46;100431.28;;;25.30;43.07
14295;BME280;7231;59.370;18.016;2023-07-13T11:49:21;100432.84;;;24.88;42.95
14295;BME280;7231;59.370;18.016;2023-07-13T11:51:51;100401.69;;;24.61;43.65
14295;BME280;7231;59.370;18.016;2023-07-13T11:54:27;100448.34;;;24.31;43.38
14295;BME280;7231;59.370;18.016;2023-07-13T11:56:59;100441.31;;;23.44;44.25
14295;BME280;7231;59.370;18.016;2023-07-13T11:59:30;100451.34;;;23.08;45.53
14295;BME280;7231;59.370;18.016;2023-07-13T12:02:00;100438.19;;;22.70;45.76
14295;BME280;7231;59.370;18.016;2023-07-13T12:04:33;100429.66;;;22.55;46.42
14295;BME280;7231;59.370;18.016;2023-07-13T12:07:06;100445.81;;;22.51;47.03
14295;BME280;7231;59.370;18.016;2023-07-13T12:09:35;100438.19;;;22.70;46.70
14295;BME280;7231;59.370;18.016;2023-07-13T12:12:11;100437.28;;;23.02;46.08
14295;BME280;7231;59.370;18.016;2023-07-13T12:14:40;100432.81;;;23.59;45.17
14295;BME280;7231;59.370;18.016;2023-07-13T12:17:18;100411.88;;;23.72;45.11
14295;BME280;7231;59.370;18.016;2023-07-13T12:19:50;100435.88;;;24.30;44.54
14295;BME280;7231;59.370;18.016;2023-07-13T12:22:20;100435.03;;;24.27;43.72
14295;BME280;7231;59.370;18.016;2023-07-13T12:24:51;100414.53;;;23.74;43.56
14295;BME280;7231;59.370;18.016;2023-07-13T12:27:22;100449.66;;;23.35;44.69
14295;BME280;7231;59.370;18.016;2023-07-13T12:29:56;100451.50;;;23.04;45.41
14295;BME280;7231;59.370;18.016;2023-07-13T12:32:26;100434.06;;;23.20;46.21
14295;BME280;7231;59.370;18.016;2023-07-13T12:35:13;100451.06;;;23.75;45.86
14295;BME280;7231;59.370;18.016;2023-07-13T12:37:42;100432.47;;;24.49;44.93
14295;BME280;7231;59.370;18.016;2023-07-13T12:40:13;100433.00;;;25.09;44.03
14295;BME280;7231;59.370;18.016;2023-07-13T12:42:42;100427.56;;;25.55;43.44
14295;BME280;7231;59.370;18.016;2023-07-13T12:45:17;100423.47;;;25.91;42.21
14295;BME280;7231;59.370;18.016;2023-07-13T12:47:49;100424.31;;;25.71;41.93
14295;BME280;7231;59.370;18.016;2023-07-13T12:50:21;100415.50;;;24.99;43.22
14295;BME280;7231;59.370;18.016;2023-07-13T12:52:51;100425.81;;;24.36;44.24
14295;BME280;7231;59.370;18.016;2023-07-13T12:55:21;100428.81;;;24.25;44.50
14295;BME280;7231;59.370;18.016;2023-07-13T12:57:53;100435.00;;;24.29;43.54
14295;BME280;7231;59.370;18.016;2023-07-13T13:00:25;100434.13;;;24.28;43.15
14295;BME280;7231;59.370;18.016;2023-07-13T13:02:56;100440.78;;;24.42;42.99
14295;BME280;7231;59.370;18.016;2023-07-13T13:05:30;100427.66;;;24.34;43.06